IAD weather

Washington Dulles International Airport
Washington, District of Columbia, United States

Public forecast

Using degrees Fahrenheit for public forecast. Weather courtesy of forecast.io.

METAR (pilot weather report)

Retrieved 2018/06/22 22:24 UTC (0 seconds ago):

KIAD 222224Z 09009G14KT 10SM OVC014 19/18 A2989 RMK AO2 T01940183

TAF (pilot weather forecast)

Retrieved 2018/06/22 18:42 UTC (4 hours ago):

TAF KIAD 221740Z 2218/2324 09009G17KT 4SM -SHRA BR BKN010 OVC025 FM222200 09010G18KT 3SM SHRA OVC010 FM230500 09006KT 3SM -SHRA BR OVC010 FM231400 17005KT P6SM BKN015 FM231700 20006KT P6SM BKN035 FM232100 22009KT P6SM OVC035